GCRR/ACE METAR and TAF weather

Enter ICAO airport designator
Station Type Date Time Source
GCRR METAR 2021/01/17 19:30 UTC NOAA

GCRR 171930Z 01005KT 9999 FEW025 17/12 Q1026


Station Type Date Time Source
GCRR Decoded METAR 2021/01/17 19:30 UTC NOAA

Lanzarote / Aeropuerto, Spain (GCRR) 28-57N 013-36W 21M
Jan 17, 2021 - 02:30 PM EST / 2021.01.17 1930 UTC
Wind: from the N (010 degrees) at 6 MPH (5 KT):0
Visibility: greater than 7 mile(s):0
Sky conditions: mostly clear
Temperature: 62 F (17 C)
Dew Point: 53 F (12 C)
Relative Humidity: 72%
Pressure (altimeter): 30.30 in. Hg (1026 hPa)
ob: GCRR 171930Z 01005KT 9999 FEW025 17/12 Q1026
cycle: 19

Station Type Date Time Source
GCRR TAF 2021/01/17 15:27 UTC NOAA

TAF GCRR 171400Z 1715/1815 10006KT 9999 SCT025 TX21/1814Z TN14/1807Z
BECMG 1718/1720 01010KT
BECMG 1809/1811 12007KT

Example: see airport list